createdAt,value
2017-04-28T00:00:01.748Z,6.50
2017-04-28T00:02:30.814Z,6.50
2017-04-28T00:04:59.841Z,6.50
2017-04-28T00:07:28.889Z,6.50
2017-04-28T00:09:57.934Z,6.80
2017-04-28T00:12:26.978Z,6.40
2017-04-28T00:14:56.040Z,6.40
2017-04-28T00:17:25.814Z,6.50
2017-04-28T00:19:54.943Z,6.60
2017-04-28T00:22:24.718Z,6.20
2017-04-28T00:24:53.794Z,6.20
2017-04-28T00:27:22.834Z,6.10
2017-04-28T00:29:51.882Z,6.10
2017-04-28T00:32:20.930Z,6.20
2017-04-28T00:34:50.037Z,6.10
2017-04-28T00:37:19.065Z,6.20
2017-04-28T00:39:48.222Z,5.80
2017-04-28T00:42:18.005Z,5.80
2017-04-28T00:44:47.048Z,6.10
2017-04-28T00:47:16.069Z,5.80
2017-04-28T00:49:45.131Z,5.90
2017-04-28T00:52:14.158Z,5.90
2017-04-28T00:54:43.237Z,5.90
2017-04-28T00:57:12.285Z,5.90
2017-04-28T00:59:41.356Z,5.90
2017-04-28T01:02:10.384Z,5.80
2017-04-28T01:04:40.169Z,5.80
2017-04-28T01:07:09.213Z,6.00
2017-04-28T01:09:38.272Z,5.80
2017-04-28T01:12:07.388Z,5.80
2017-04-28T01:14:37.153Z,5.90
2017-04-28T01:17:06.205Z,5.90
2017-04-28T01:19:35.243Z,5.60
2017-04-28T01:22:04.280Z,5.30
2017-04-28T01:24:34.079Z,5.50
2017-04-28T01:27:03.112Z,5.40
2017-04-28T01:29:32.157Z,5.50
2017-04-28T01:32:01.197Z,5.60
2017-04-28T01:34:30.251Z,5.30
2017-04-28T01:36:59.296Z,5.60
2017-04-28T01:39:28.359Z,5.50
2017-04-28T01:41:58.140Z,5.50
2017-04-28T01:44:27.177Z,5.50
2017-04-28T01:46:56.230Z,5.50
2017-04-28T01:49:25.272Z,5.20
2017-04-28T01:51:54.329Z,5.10
2017-04-28T01:54:24.124Z,5.20
2017-04-28T01:56:53.176Z,5.30
2017-04-28T01:59:22.213Z,5.10
2017-04-28T02:01:51.261Z,5.40
2017-04-28T02:04:20.308Z,5.30
2017-04-28T02:06:49.337Z,5.10
2017-04-28T02:09:18.389Z,5.30
2017-04-28T02:11:47.422Z,5.30
2017-04-28T02:14:16.483Z,5.30
2017-04-28T02:16:45.580Z,5.20
2017-04-28T02:19:14.652Z,5.10
2017-04-28T02:21:43.684Z,5.30
2017-04-28T02:24:13.471Z,5.20
2017-04-28T02:26:42.511Z,5.00
2017-04-28T02:29:11.573Z,5.00
2017-04-28T02:31:41.367Z,5.20
2017-04-28T02:34:10.432Z,5.10
2017-04-28T02:36:39.539Z,4.80
2017-04-28T02:39:08.553Z,5.10
2017-04-28T02:41:38.522Z,5.20
2017-04-28T02:44:07.561Z,4.70
2017-04-28T02:46:36.610Z,5.20
2017-04-28T02:49:05.664Z,4.90
2017-04-28T02:51:35.471Z,4.70
2017-04-28T02:54:04.500Z,4.70
2017-04-28T02:56:33.563Z,4.70
2017-04-28T02:59:02.619Z,4.70
2017-04-28T03:01:31.682Z,5.10
2017-04-28T03:04:00.738Z,5.00
2017-04-28T03:06:29.864Z,5.20
2017-04-28T03:08:59.640Z,4.90
2017-04-28T03:11:28.685Z,5.10
2017-04-28T03:13:57.731Z,5.20
2017-04-28T03:16:26.803Z,5.00
2017-04-28T03:18:55.856Z,5.20
2017-04-28T03:21:24.902Z,4.90
2017-04-28T03:23:53.949Z,5.20
2017-04-28T03:26:22.973Z,5.00
2017-04-28T03:28:52.105Z,4.70
2017-04-28T03:31:21.148Z,5.10
2017-04-28T03:33:50.189Z,5.00
2017-04-28T03:36:19.225Z,5.00
2017-04-28T03:38:48.278Z,5.10
2017-04-28T03:41:17.310Z,4.80
2017-04-28T03:43:46.361Z,4.90
2017-04-28T03:46:15.394Z,4.70
2017-04-28T03:48:44.490Z,4.70
2017-04-28T03:51:14.243Z,4.80
2017-04-28T03:53:43.311Z,4.60
2017-04-28T03:56:12.345Z,4.90
2017-04-28T03:58:41.378Z,4.40
2017-04-28T04:01:10.425Z,4.60
2017-04-28T04:03:39.465Z,4.70
2017-04-28T04:06:08.518Z,4.60
2017-04-28T04:08:37.560Z,4.60
2017-04-28T04:11:06.601Z,4.60
2017-04-28T04:13:35.627Z,4.60
2017-04-28T04:16:05.537Z,4.60
2017-04-28T04:18:34.554Z,4.70
2017-04-28T04:21:03.607Z,4.80
2017-04-28T04:23:32.638Z,4.90
2017-04-28T04:26:01.689Z,4.70
2017-04-28T04:28:30.726Z,4.60
2017-04-28T04:30:59.777Z,4.60
2017-04-28T04:33:28.826Z,4.70
2017-04-28T04:35:57.856Z,4.70
2017-04-28T04:38:26.897Z,4.90
2017-04-28T04:40:55.944Z,5.00
2017-04-28T04:43:24.975Z,5.20
2017-04-28T04:45:54.767Z,4.90
2017-04-28T04:48:23.794Z,5.10
2017-04-28T04:50:52.866Z,5.20
2017-04-28T04:53:22.646Z,5.30
2017-04-28T04:55:51.701Z,5.60
2017-04-28T04:58:20.758Z,5.60
2017-04-28T05:00:50.538Z,5.80
2017-04-28T05:03:19.599Z,5.60
2017-04-28T05:05:48.623Z,6.00
2017-04-28T05:08:17.681Z,5.80
2017-04-28T05:10:46.750Z,5.70
2017-04-28T05:13:16.536Z,6.00
2017-04-28T05:15:46.341Z,6.20
2017-04-28T05:18:15.390Z,6.30
2017-04-28T05:20:44.430Z,6.10
2017-04-28T05:23:13.481Z,6.00
2017-04-28T05:25:42.509Z,5.90
2017-04-28T05:28:11.581Z,6.30
2017-04-28T05:30:40.622Z,6.10
2017-04-28T05:33:09.673Z,6.50
2017-04-28T05:35:38.730Z,6.30
2017-04-28T05:38:08.506Z,6.60
2017-04-28T05:40:37.549Z,6.80
2017-04-28T05:43:06.602Z,6.60
2017-04-28T05:45:35.633Z,6.90
2017-04-28T05:48:04.693Z,6.90
2017-04-28T05:50:33.732Z,6.90
2017-04-28T05:53:02.789Z,6.90
2017-04-28T05:55:31.830Z,6.80
2017-04-28T05:58:00.877Z,7.00
2017-04-28T06:00:29.921Z,6.90
2017-04-28T06:02:58.996Z,7.20
2017-04-28T06:05:28.756Z,7.10
2017-04-28T06:07:57.798Z,7.30
2017-04-28T06:10:26.864Z,7.20
2017-04-28T06:12:55.930Z,7.20
2017-04-28T06:15:24.972Z,6.80
2017-04-28T06:17:54.750Z,7.00
2017-04-28T06:20:23.824Z,7.10
2017-04-28T06:22:52.888Z,7.10
2017-04-28T06:25:21.952Z,7.60
2017-04-28T06:27:51.745Z,7.60
2017-04-28T06:30:20.796Z,7.40
2017-04-28T06:32:49.840Z,7.50
2017-04-28T06:35:18.902Z,7.80
2017-04-28T06:37:47.934Z,7.90
2017-04-28T06:40:17.743Z,8.00
2017-04-28T06:42:46.786Z,7.80
2017-04-28T06:45:15.868Z,7.80
2017-04-28T06:47:44.900Z,8.10
2017-04-28T06:50:13.943Z,8.10
2017-04-28T06:52:43.770Z,7.70
2017-04-28T06:55:12.808Z,8.00
2017-04-28T06:57:41.859Z,8.10
2017-04-28T07:00:10.900Z,7.80
2017-04-28T07:02:39.938Z,8.20
2017-04-28T07:05:08.980Z,8.40
2017-04-28T07:07:39.241Z,8.40
2017-04-28T07:10:08.266Z,8.40
2017-04-28T07:12:37.322Z,8.40
2017-04-28T07:15:07.104Z,8.30
2017-04-28T07:17:36.149Z,8.20
2017-04-28T07:20:05.246Z,8.30
2017-04-28T07:22:35.071Z,8.70
2017-04-28T07:25:04.105Z,8.70
2017-04-28T07:27:33.185Z,9.20
2017-04-28T07:30:02.262Z,9.10
2017-04-28T07:32:31.294Z,9.70
2017-04-28T07:35:00.353Z,9.90
2017-04-28T07:37:29.418Z,10.50
2017-04-28T07:39:58.513Z,10.00
2017-04-28T07:42:27.573Z,10.60
2017-04-28T07:44:56.672Z,10.40
2017-04-28T07:47:25.693Z,10.50
2017-04-28T07:49:54.765Z,10.00
2017-04-28T07:52:24.545Z,9.60
2017-04-28T07:54:53.598Z,9.30
2017-04-28T07:57:22.634Z,9.30
2017-04-28T07:59:51.710Z,9.70
2017-04-28T08:02:20.738Z,10.10
2017-04-28T08:04:49.864Z,10.30
2017-04-28T08:07:19.664Z,10.40
2017-04-28T08:09:48.713Z,10.50
2017-04-28T08:12:17.749Z,11.30
2017-04-28T08:14:47.553Z,11.70
2017-04-28T08:17:17.341Z,12.30
2017-04-28T08:19:46.428Z,12.60
2017-04-28T08:22:15.473Z,12.30
2017-04-28T08:24:44.533Z,11.60
2017-04-28T08:27:13.577Z,11.70
2017-04-28T08:29:42.634Z,10.80
2017-04-28T08:32:11.687Z,10.80
2017-04-28T08:34:40.740Z,11.10
2017-04-28T08:37:09.780Z,10.70
2017-04-28T08:39:38.839Z,10.70
2017-04-28T08:42:07.880Z,10.50
2017-04-28T08:44:36.954Z,10.50
2017-04-28T08:47:05.998Z,10.70
2017-04-28T08:49:35.782Z,10.80
2017-04-28T08:52:04.855Z,10.80
2017-04-28T08:54:33.895Z,11.30
2017-04-28T08:57:02.950Z,11.60
2017-04-28T08:59:32.007Z,11.60
2017-04-28T09:02:01.114Z,11.80
2017-04-28T09:04:30.196Z,11.40
2017-04-28T09:06:59.259Z,11.20
2017-04-28T09:09:28.308Z,11.80
2017-04-28T09:11:57.390Z,12.30
2017-04-28T09:14:26.432Z,12.80
2017-04-28T09:16:55.498Z,13.00
2017-04-28T09:19:24.554Z,12.70
2017-04-28T09:21:54.362Z,11.90
2017-04-28T09:24:24.145Z,12.30
2017-04-28T09:26:53.249Z,12.50
2017-04-28T09:29:23.039Z,13.00
2017-04-28T09:31:52.106Z,13.00
2017-04-28T09:34:21.148Z,12.60
2017-04-28T09:36:51.009Z,12.60
2017-04-28T09:39:20.053Z,13.00
2017-04-28T09:41:49.101Z,12.90
2017-04-28T09:44:18.163Z,13.10
2017-04-28T09:46:47.942Z,12.90
2017-04-28T09:49:17.000Z,13.10
2017-04-28T09:51:46.069Z,13.00
2017-04-28T09:54:15.155Z,12.20
2017-04-28T09:56:44.943Z,12.20
2017-04-28T09:59:14.002Z,12.40
2017-04-28T10:01:43.096Z,12.60
2017-04-28T10:04:12.165Z,13.00
2017-04-28T10:06:41.245Z,12.80
2017-04-28T10:09:11.084Z,12.80
2017-04-28T10:11:40.137Z,12.90
2017-04-28T10:14:09.944Z,12.80
2017-04-28T10:16:39.018Z,12.90
2017-04-28T10:19:08.093Z,13.10
2017-04-28T10:21:37.135Z,13.10
2017-04-28T10:24:12.183Z,13.10
2017-04-28T10:26:41.952Z,13.10
2017-04-28T10:29:10.989Z,13.40
2017-04-28T10:31:40.059Z,13.00
2017-04-28T10:34:09.101Z,12.50
2017-04-28T10:36:38.169Z,12.40
2017-04-28T10:39:07.958Z,12.60
2017-04-28T10:41:37.030Z,12.50
2017-04-28T10:44:06.077Z,12.30
2017-04-28T10:46:35.137Z,12.50
2017-04-28T10:49:04.182Z,12.40
2017-04-28T10:51:33.351Z,12.30
2017-04-28T10:54:03.170Z,12.10
2017-04-28T10:56:32.969Z,12.10
2017-04-28T10:59:02.764Z,12.10
2017-04-28T11:01:31.829Z,11.90
2017-04-28T11:04:00.885Z,12.00
2017-04-28T11:06:29.956Z,12.30
2017-04-28T11:08:59.021Z,12.50
2017-04-28T11:11:28.072Z,13.00
2017-04-28T11:13:57.138Z,12.80
2017-04-28T11:16:26.173Z,13.60
2017-04-28T11:18:55.254Z,14.00
2017-04-28T11:21:24.293Z,13.90
2017-04-28T11:23:53.353Z,14.30
2017-04-28T11:26:22.406Z,14.20
2017-04-28T11:28:51.477Z,14.30
2017-04-28T11:31:20.519Z,14.30
2017-04-28T11:33:50.329Z,14.30
2017-04-28T11:36:20.100Z,14.80
2017-04-28T11:38:49.174Z,15.00
2017-04-28T11:41:18.206Z,14.90
2017-04-28T11:43:47.270Z,14.40
2017-04-28T11:46:16.326Z,14.30
2017-04-28T11:48:45.422Z,14.30
2017-04-28T11:51:14.507Z,14.30
2017-04-28T11:53:44.317Z,14.40
2017-04-28T11:56:14.117Z,14.90
2017-04-28T11:58:43.914Z,14.90
2017-04-28T12:01:12.977Z,15.60
2017-04-28T12:03:42.025Z,17.10
2017-04-28T12:06:11.831Z,16.80
2017-04-28T12:08:41.616Z,16.80
2017-04-28T12:11:10.669Z,16.20
2017-04-28T12:13:39.746Z,15.60
2017-04-28T12:16:09.535Z,15.50
2017-04-28T12:18:38.584Z,14.50
2017-04-28T12:21:07.641Z,14.30
2017-04-28T12:23:37.418Z,13.90
2017-04-28T12:26:06.487Z,14.00
2017-04-28T12:28:35.522Z,14.50
2017-04-28T12:31:04.638Z,14.60
2017-04-28T12:33:34.415Z,15.00
2017-04-28T12:36:04.956Z,15.60
2017-04-28T12:38:33.997Z,16.00
2017-04-28T12:41:03.171Z,15.80
2017-04-28T12:43:32.940Z,15.50
2017-04-28T12:46:02.014Z,15.40
2017-04-28T12:48:31.057Z,15.00
2017-04-28T12:51:00.846Z,15.30
2017-04-28T12:53:29.925Z,14.90
2017-04-28T12:55:58.957Z,14.80
2017-04-28T12:58:28.760Z,14.80
2017-04-28T13:00:57.810Z,14.50
2017-04-28T13:03:26.872Z,14.30
2017-04-28T13:05:55.919Z,14.40
2017-04-28T13:08:25.006Z,14.70
2017-04-28T13:10:54.142Z,14.40
2017-04-28T13:13:23.288Z,14.90
2017-04-28T13:15:52.329Z,14.90
2017-04-28T13:18:21.394Z,15.40
2017-04-28T13:20:50.526Z,15.40
2017-04-28T13:23:20.334Z,16.10
2017-04-28T13:25:50.144Z,16.50
2017-04-28T13:28:20.070Z,15.70
2017-04-28T13:30:49.091Z,15.30
2017-04-28T13:33:18.262Z,15.20
2017-04-28T13:35:48.092Z,15.40
2017-04-28T13:38:17.115Z,15.90
2017-04-28T13:40:46.179Z,15.40
2017-04-28T13:43:15.221Z,15.50
2017-04-28T13:45:44.287Z,15.40
2017-04-28T13:48:13.328Z,15.80
2017-04-28T13:50:43.125Z,15.70
2017-04-28T13:53:12.163Z,15.20
2017-04-28T13:55:41.235Z,14.80
2017-04-28T13:58:10.310Z,15.00
2017-04-28T14:00:39.376Z,14.80
2017-04-28T14:03:08.414Z,14.40
2017-04-28T14:05:38.218Z,14.10
2017-04-28T14:08:08.009Z,13.80
2017-04-28T14:10:37.082Z,13.40
2017-04-28T14:13:06.118Z,13.50
2017-04-28T14:15:35.924Z,14.00
2017-04-28T14:18:05.013Z,14.00
2017-04-28T14:20:34.070Z,13.90
2017-04-28T14:23:03.119Z,14.00
2017-04-28T14:25:32.937Z,13.50
2017-04-28T14:28:02.718Z,13.90
2017-04-28T14:30:31.794Z,13.90
2017-04-28T14:33:00.899Z,14.00
2017-04-28T14:35:29.955Z,14.00
2017-04-28T14:37:59.001Z,13.50
2017-04-28T14:40:28.067Z,14.00
2017-04-28T14:42:57.103Z,13.40
2017-04-28T14:45:26.883Z,13.00
2017-04-28T14:47:55.961Z,12.30
2017-04-28T14:50:25.130Z,11.90
2017-04-28T14:52:54.201Z,11.10
2017-04-28T14:55:24.025Z,10.70
2017-04-28T14:57:53.826Z,10.10
2017-04-28T15:00:23.617Z,10.10
2017-04-28T15:02:52.731Z,10.20
2017-04-28T15:05:22.543Z,10.20
2017-04-28T15:07:51.934Z,10.60
2017-04-28T15:10:20.973Z,10.40
2017-04-28T15:12:50.046Z,10.80
2017-04-28T15:15:19.830Z,10.80
2017-04-28T15:17:48.926Z,10.70
2017-04-28T15:20:18.040Z,10.70
2017-04-28T15:22:47.881Z,10.90
2017-04-28T15:25:16.926Z,11.10
2017-04-28T15:27:45.969Z,11.20
2017-04-28T15:30:15.035Z,11.40
2017-04-28T15:32:44.836Z,11.10
2017-04-28T15:35:14.642Z,11.60
2017-04-28T15:37:43.945Z,11.80
2017-04-28T15:40:13.761Z,11.90
2017-04-28T15:42:42.810Z,12.10
2017-04-28T15:45:11.901Z,12.00
2017-04-28T15:47:43.907Z,12.20
2017-04-28T15:50:13.013Z,12.60
2017-04-28T15:52:42.813Z,13.50
2017-04-28T15:55:12.050Z,13.80
2017-04-28T15:57:41.134Z,14.00
2017-04-28T16:00:10.243Z,14.80
2017-04-28T16:02:39.340Z,15.50
2017-04-28T16:05:08.417Z,15.70
2017-04-28T16:07:38.186Z,15.60
2017-04-28T16:10:07.257Z,15.00
2017-04-28T16:12:36.305Z,14.70
2017-04-28T16:15:06.122Z,13.90
2017-04-28T16:17:35.916Z,13.50
2017-04-28T16:20:04.994Z,13.10
2017-04-28T16:22:39.088Z,13.20
2017-04-28T16:25:08.156Z,12.70
2017-04-28T16:27:37.197Z,12.70
2017-04-28T16:30:06.281Z,12.00
2017-04-28T16:32:35.347Z,12.20
2017-04-28T16:35:04.430Z,12.00
2017-04-28T16:37:33.514Z,12.30
2017-04-28T16:40:02.587Z,12.00
2017-04-28T16:42:32.404Z,11.90
2017-04-28T16:45:02.201Z,11.60
2017-04-28T16:47:31.281Z,11.60
2017-04-28T16:50:00.334Z,11.80
2017-04-28T16:52:29.386Z,11.50
2017-04-28T16:54:58.463Z,11.20
2017-04-28T16:57:27.538Z,11.20
2017-04-28T16:59:56.602Z,11.40
2017-04-28T17:02:25.682Z,10.80
2017-04-28T17:04:55.461Z,11.00
2017-04-28T17:07:24.553Z,10.80
2017-04-28T17:09:53.616Z,10.90
2017-04-28T17:12:22.686Z,10.90
2017-04-28T17:14:52.602Z,10.90
2017-04-28T17:17:22.380Z,10.80
2017-04-28T17:19:51.762Z,11.00
2017-04-28T17:22:20.858Z,10.90
2017-04-28T17:24:49.946Z,11.20
2017-04-28T17:27:18.993Z,11.20
2017-04-28T17:29:48.912Z,11.10
2017-04-28T17:32:18.696Z,11.10
2017-04-28T17:34:47.852Z,11.20
2017-04-28T17:37:16.917Z,11.10
2017-04-28T17:39:46.105Z,11.30
2017-04-28T17:42:15.158Z,11.20
2017-04-28T17:44:44.277Z,11.20
2017-04-28T17:47:13.367Z,11.30
2017-04-28T17:49:42.458Z,11.10
2017-04-28T17:52:11.505Z,11.20
2017-04-28T17:54:40.582Z,11.20
2017-04-28T17:57:09.629Z,11.10
2017-04-28T17:59:38.671Z,11.30
2017-04-28T18:02:07.745Z,11.30
2017-04-28T18:04:37.541Z,11.40
2017-04-28T18:07:06.618Z,11.10
2017-04-28T18:09:35.683Z,10.90
2017-04-28T18:12:04.746Z,10.80
2017-04-28T18:14:34.565Z,11.00
2017-04-28T18:17:04.375Z,10.90
2017-04-28T18:19:34.186Z,10.90
2017-04-28T18:22:03.987Z,10.80
2017-04-28T18:24:33.803Z,10.80
2017-04-28T18:27:03.617Z,10.80
2017-04-28T18:29:33.409Z,10.40
2017-04-28T18:32:02.560Z,10.40
2017-04-28T18:34:31.791Z,10.60
2017-04-28T18:37:01.112Z,10.50
2017-04-28T18:39:30.162Z,10.50
2017-04-28T18:41:59.237Z,10.50
2017-04-28T18:44:28.436Z,10.40
2017-04-28T18:46:59.060Z,10.10
2017-04-28T18:49:28.829Z,10.10
2017-04-28T18:51:57.897Z,10.00
2017-04-28T18:54:26.974Z,10.00
2017-04-28T18:56:56.253Z,10.10
2017-04-28T18:59:26.035Z,10.10
2017-04-28T19:01:55.096Z,10.10
2017-04-28T19:04:24.144Z,10.30
2017-04-28T19:06:53.949Z,10.30
2017-04-28T19:09:23.872Z,10.20
2017-04-28T19:11:53.057Z,10.10
2017-04-28T19:14:22.156Z,10.00
2017-04-28T19:16:51.702Z,10.10
2017-04-28T19:19:21.078Z,10.40
2017-04-28T19:21:50.890Z,10.40
2017-04-28T19:24:20.924Z,10.40
2017-04-28T19:26:50.710Z,10.00
2017-04-28T19:29:20.485Z,10.20
2017-04-28T19:31:49.701Z,10.20
2017-04-28T19:34:19.611Z,10.00
2017-04-28T19:36:48.665Z,10.20
2017-04-28T19:39:17.723Z,9.80
2017-04-28T19:41:46.899Z,10.10
2017-04-28T19:44:15.943Z,10.10
2017-04-28T19:46:45.067Z,9.70
2017-04-28T19:49:14.113Z,10.20
2017-04-28T19:51:43.881Z,9.90
2017-04-28T19:54:13.158Z,10.10
2017-04-28T19:56:42.245Z,10.20
2017-04-28T19:59:11.804Z,10.20
2017-04-28T20:01:40.896Z,10.00
2017-04-28T20:04:09.943Z,10.10
2017-04-28T20:06:40.008Z,10.20
2017-04-28T20:09:14.368Z,10.00
2017-04-28T20:11:43.393Z,10.20
2017-04-28T20:14:12.457Z,10.10
2017-04-28T20:16:41.511Z,10.10
2017-04-28T20:19:10.569Z,10.10
2017-04-28T20:21:39.612Z,10.10
2017-04-28T20:24:09.397Z,9.90
2017-04-28T20:26:38.429Z,10.00
2017-04-28T20:29:07.471Z,9.90
2017-04-28T20:31:36.618Z,9.60
2017-04-28T20:34:07.593Z,9.70
2017-04-28T20:36:37.617Z,9.80
2017-04-28T20:39:06.664Z,9.60
2017-04-28T20:41:36.422Z,9.80
2017-04-28T20:44:05.517Z,9.80
2017-04-28T20:46:34.540Z,9.30
2017-04-28T20:49:03.590Z,9.30
2017-04-28T20:51:32.639Z,9.30
2017-04-28T20:54:02.418Z,9.40
2017-04-28T20:56:31.443Z,9.30
2017-04-28T20:59:01.242Z,9.10
2017-04-28T21:01:30.274Z,9.10
2017-04-28T21:03:59.317Z,9.20
2017-04-28T21:06:28.333Z,8.90
2017-04-28T21:08:58.269Z,9.10
2017-04-28T21:11:28.025Z,9.10
2017-04-28T21:13:57.082Z,9.10
2017-04-28T21:16:26.142Z,9.20
2017-04-28T21:18:55.173Z,9.10
2017-04-28T21:21:24.210Z,8.90
2017-04-28T21:23:53.317Z,9.20
2017-04-28T21:26:22.367Z,9.10
2017-04-28T21:28:51.406Z,8.90
2017-04-28T21:31:20.441Z,8.90
2017-04-28T21:33:49.466Z,8.80
2017-04-28T21:36:18.514Z,8.80
2017-04-28T21:38:48.290Z,8.80
2017-04-28T21:41:17.389Z,8.70
2017-04-28T21:43:46.449Z,8.60
2017-04-28T21:46:15.485Z,8.80
2017-04-28T21:48:44.596Z,8.60
2017-04-28T21:51:13.621Z,8.70
2017-04-28T21:53:42.713Z,8.90
2017-04-28T21:56:11.757Z,8.80
2017-04-28T21:58:40.799Z,8.40
2017-04-28T22:01:09.858Z,8.30
2017-04-28T22:03:38.875Z,8.50
2017-04-28T22:06:07.918Z,8.00
2017-04-28T22:08:36.963Z,8.20
2017-04-28T22:11:05.990Z,8.20
2017-04-28T22:13:35.042Z,8.40
2017-04-28T22:16:10.581Z,8.00
2017-04-28T22:18:40.374Z,8.00
2017-04-28T22:21:09.398Z,7.90
2017-04-28T22:23:38.447Z,8.20
2017-04-28T22:26:07.472Z,7.90
2017-04-28T22:28:37.298Z,8.10
2017-04-28T22:31:07.099Z,7.90
2017-04-28T22:33:36.173Z,7.90
2017-04-28T22:36:05.964Z,8.20
2017-04-28T22:38:35.790Z,8.10
2017-04-28T22:41:04.841Z,8.10
2017-04-28T22:43:33.889Z,7.80
2017-04-28T22:46:02.917Z,8.00
2017-04-28T22:48:31.960Z,7.90
2017-04-28T22:51:00.983Z,8.10
2017-04-28T22:53:30.766Z,8.10
2017-04-28T22:55:59.801Z,7.80
2017-04-28T22:58:28.845Z,8.10
2017-04-28T23:00:57.870Z,7.80
2017-04-28T23:03:26.958Z,7.80
2017-04-28T23:05:55.990Z,7.70
2017-04-28T23:08:25.035Z,7.90
2017-04-28T23:10:54.069Z,7.50
2017-04-28T23:13:23.118Z,7.50
2017-04-28T23:15:52.141Z,7.50
2017-04-28T23:18:21.942Z,7.50
2017-04-28T23:20:50.961Z,7.70
2017-04-28T23:23:20.013Z,7.40
2017-04-28T23:25:49.030Z,7.80
2017-04-28T23:28:18.809Z,7.50
2017-04-28T23:30:47.837Z,7.40
2017-04-28T23:33:17.621Z,7.60
2017-04-28T23:35:46.643Z,7.50
2017-04-28T23:38:16.430Z,7.50
2017-04-28T23:40:45.449Z,7.40
2017-04-28T23:43:15.240Z,7.40
2017-04-28T23:45:44.277Z,7.40
2017-04-28T23:48:13.362Z,7.80
2017-04-28T23:50:42.377Z,7.40
2017-04-28T23:53:11.422Z,7.40
2017-04-28T23:55:41.194Z,7.60
2017-04-28T23:58:10.241Z,7.10
